Time;durP1;ratioP1;P1;durP2;ratioP2;P2;SDS_P1;SDS_P2;PMS_P1;PMS_P2;Temp;Humidity;BMP_temperature;BMP_pressure;BME280_temperature;BME280_humidity;BME280_pressure;Samples;Min_cycle;Max_cycle;Signal;HPM_P1;HPM_P2
2023/05/28 00:02:28;;;;;;;24.08;8.38;;;;;;;13.34;100.00;101992.53;5222489;28;20035;-70
2023/05/28 00:05:00;;;;;;;24.38;9.40;;;;;;;13.26;100.00;101992.47;5229235;28;20075;-70
2023/05/28 00:07:30;;;;;;;26.00;8.63;;;;;;;13.14;100.00;101987.28;5230723;28;20025;-70
2023/05/28 00:10:01;;;;;;;31.98;8.82;;;;;;;13.04;100.00;101980.28;5223545;28;20036;-70
2023/05/28 00:12:31;;;;;;;19.27;8.40;;;;;;;12.97;100.00;101977.38;5224584;28;20013;-70
2023/05/28 00:15:02;;;;;;;32.85;8.60;;;;;;;12.88;100.00;101975.59;5224245;28;20028;-70
2023/05/28 00:17:33;;;;;;;26.88;8.85;;;;;;;12.79;100.00;101977.38;5223466;28;20024;-70
2023/05/28 00:20:04;;;;;;;17.35;8.55;;;;;;;12.73;100.00;101969.91;5224653;28;20497;-70
2023/05/28 00:22:35;;;;;;;33.78;9.77;;;;;;;12.68;100.00;101970.34;5238881;28;20028;-70
2023/05/28 00:25:06;;;;;;;26.17;9.20;;;;;;;12.59;100.00;101965.88;5231408;28;20256;-70
2023/05/28 00:27:37;;;;;;;23.10;8.77;;;;;;;12.51;100.00;101957.75;5222298;28;20051;-70
2023/05/28 00:30:08;;;;;;;22.58;8.40;;;;;;;12.38;100.00;101952.72;5222837;28;20341;-70
2023/05/28 00:32:38;;;;;;;28.85;9.00;;;;;;;12.22;100.00;101959.75;5237083;28;20104;-70
2023/05/28 00:35:08;;;;;;;25.30;9.55;;;;;;;12.07;100.00;101960.25;5224069;28;20055;-70
2023/05/28 00:37:39;;;;;;;23.65;8.63;;;;;;;11.99;100.00;101954.75;5223401;28;20021;-70
2023/05/28 00:40:10;;;;;;;22.77;8.98;;;;;;;11.97;100.00;101951.38;5224967;28;20428;-70
2023/05/28 00:42:41;;;;;;;27.45;10.10;;;;;;;11.93;100.00;101956.19;5232273;28;20100;-70
2023/05/28 00:45:11;;;;;;;24.60;9.82;;;;;;;11.89;100.00;101953.94;5227217;28;20082;-70
2023/05/28 00:47:42;;;;;;;30.23;9.60;;;;;;;11.89;100.00;101960.16;5232417;28;20527;-70
2023/05/28 00:50:13;;;;;;;26.05;9.98;;;;;;;11.85;100.00;101963.34;5237793;28;20021;-70
2023/05/28 00:52:46;;;;;;;21.55;8.63;;;;;;;11.81;100.00;101957.38;5224822;28;20470;-70
2023/05/28 00:55:17;;;;;;;25.83;9.07;;;;;;;11.76;100.00;101956.97;5226470;28;20024;-70
2023/05/28 00:57:48;;;;;;;25.15;9.13;;;;;;;11.78;100.00;101962.19;5224548;28;20028;-70
2023/05/28 01:00:19;;;;;;;30.02;9.98;;;;;;;11.83;100.00;101962.63;5225642;28;20037;-70
2023/05/28 01:02:50;;;;;;;27.52;10.13;;;;;;;11.99;100.00;101954.75;5227565;28;20482;-70
2023/05/28 01:05:20;;;;;;;21.50;10.57;;;;;;;12.07;100.00;101960.25;5225310;28;20024;-70
2023/05/28 01:07:51;;;;;;;34.42;10.65;;;;;;;12.15;100.00;101954.97;5227585;28;20440;-70
2023/05/28 01:10:21;;;;;;;28.00;9.95;;;;;;;12.22;100.00;101959.75;5225003;28;20033;-70
2023/05/28 01:12:54;;;;;;;29.80;10.32;;;;;;;12.40;100.00;101957.97;5228158;28;20436;-70
2023/05/28 01:15:25;;;;;;;24.70;9.95;;;;;;;12.42;100.00;101958.66;5225621;28;20112;-70
2023/05/28 01:17:59;;;;;;;29.80;9.88;;;;;;;12.44;100.00;101956.63;5228687;28;20462;-70
2023/05/28 01:20:30;;;;;;;32.28;11.45;;;;;;;12.40;100.00;101952.59;5229767;28;20028;-70
2023/05/28 01:23:07;;;;;;;20.55;9.93;;;;;;;12.39;100.00;101957.09;5228901;28;20032;-70
2023/05/28 01:25:38;;;;;;;25.58;10.15;;;;;;;12.43;100.00;101958.47;5222388;28;20561;-70
2023/05/28 01:28:27;;;;;;;29.35;11.00;;;;;;;12.47;100.00;101964.41;5223764;28;20452;-72
2023/05/28 01:30:57;;;;;;;32.35;10.10;;;;;;;12.46;100.00;101964.59;5226632;28;20371;-70
2023/05/28 01:33:28;;;;;;;30.63;11.07;;;;;;;12.45;100.00;101961.03;5225962;28;20020;-70
2023/05/28 01:35:59;;;;;;;30.40;11.02;;;;;;;12.41;100.00;101959.66;5225779;28;20076;-70
2023/05/28 01:38:29;;;;;;;26.85;10.35;;;;;;;12.42;100.00;101953.25;5226262;28;20529;-70
2023/05/28 01:41:01;;;;;;;28.52;10.82;;;;;;;12.44;100.00;101952.09;5226266;28;20029;-70
2023/05/28 01:43:32;;;;;;;30.77;11.45;;;;;;;12.41;100.00;101962.34;5226082;28;20387;-70
2023/05/28 01:46:04;;;;;;;37.35;10.57;;;;;;;12.36;100.00;101952.03;5225135;28;20059;-71
2023/05/28 01:48:35;;;;;;;24.50;10.65;;;;;;;12.31;100.00;101957.00;5235573;28;20029;-70
2023/05/28 01:51:06;;;;;;;34.60;12.20;;;;;;;12.32;100.00;101955.16;5226214;28;20021;-70
2023/05/28 01:53:37;;;;;;;31.30;11.18;;;;;;;12.29;100.00;101969.75;5226323;28;20023;-70
2023/05/28 01:56:07;;;;;;;27.77;11.30;;;;;;;12.30;100.00;101968.78;5225283;28;20017;-70
2023/05/28 01:58:38;;;;;;;33.05;11.73;;;;;;;12.30;100.00;101955.31;5225479;28;20029;-70
2023/05/28 02:01:28;;;;;;;32.42;11.57;;;;;;;12.23;100.00;101956.91;5225910;28;20044;-70
2023/05/28 02:04:01;;;;;;;31.52;11.57;;;;;;;12.22;100.00;101976.75;5225891;28;20029;-71
2023/05/28 02:06:32;;;;;;;43.65;12.80;;;;;;;12.24;100.00;101972.03;5238470;28;20481;-71
2023/05/28 02:09:02;;;;;;;29.55;10.90;;;;;;;12.26;100.00;101963.84;5226535;28;20469;-71
2023/05/28 02:11:33;;;;;;;37.95;12.25;;;;;;;12.28;100.00;101969.91;5226349;28;20044;-71
2023/05/28 02:14:04;;;;;;;31.60;12.57;;;;;;;12.25;100.00;101967.50;5226585;28;20052;-70
2023/05/28 02:16:35;;;;;;;40.03;12.45;;;;;;;12.22;100.00;101967.81;5225704;28;20063;-70
2023/05/28 02:19:06;;;;;;;34.10;12.23;;;;;;;12.15;100.00;101964.91;5226248;28;20120;-70
2023/05/28 02:21:36;;;;;;;33.17;13.38;;;;;;;12.12;100.00;101965.19;5226230;28;20124;-71
2023/05/28 02:24:07;;;;;;;34.97;12.95;;;;;;;12.06;100.00;101955.88;5240858;28;20160;-71
2023/05/28 02:26:38;;;;;;;30.05;11.75;;;;;;;12.03;100.00;101960.69;5224922;28;20433;-70
2023/05/28 02:29:08;;;;;;;35.95;13.20;;;;;;;12.01;100.00;101957.31;5225795;28;20472;-70
2023/05/28 02:31:39;;;;;;;34.03;13.02;;;;;;;11.98;100.00;101961.13;5225113;28;20025;-70
2023/05/28 02:34:10;;;;;;;29.85;12.15;;;;;;;11.98;100.00;101960.28;5225451;28;20094;-70
2023/05/28 02:36:40;;;;;;;33.30;12.30;;;;;;;11.91;100.00;101952.81;5237574;28;20028;-70
2023/05/28 02:39:11;;;;;;;39.47;13.32;;;;;;;11.87;100.00;101956.81;5225423;28;20029;-70
2023/05/28 02:41:41;;;;;;;35.60;13.05;;;;;;;11.83;100.00;101951.84;5226215;28;20474;-70
2023/05/28 02:44:12;;;;;;;39.20;13.55;;;;;;;11.81;100.00;101951.16;5225412;28;20025;-70
2023/05/28 02:46:42;;;;;;;37.05;13.07;;;;;;;11.79;100.00;101953.09;5238680;28;20469;-70
2023/05/28 02:49:13;;;;;;;36.60;13.27;;;;;;;11.76;100.00;101948.06;5244211;28;20073;-70
2023/05/28 02:51:43;;;;;;;36.83;12.13;;;;;;;11.71;100.00;101951.19;5231496;28;20485;-70
2023/05/28 02:54:14;;;;;;;34.42;12.27;;;;;;;11.67;100.00;101945.25;5226818;28;20104;-70
2023/05/28 02:56:45;;;;;;;31.48;13.40;;;;;;;11.62;100.00;101950.19;5229459;28;20080;-70
2023/05/28 02:59:15;;;;;;;36.00;12.88;;;;;;;11.58;100.00;101945.25;5227978;28;20047;-71
2023/05/28 03:01:45;;;;;;;30.80;13.48;;;;;;;11.53;100.00;101956.44;5230315;28;20390;-70
2023/05/28 03:04:16;;;;;;;29.92;12.38;;;;;;;11.47;100.00;101961.56;5228233;28;20032;-70
2023/05/28 03:06:47;;;;;;;34.38;12.43;;;;;;;11.45;100.00;101959.03;5231682;28;20017;-70
2023/05/28 03:09:17;;;;;;;45.63;13.48;;;;;;;11.44;100.00;101959.16;5229855;28;20523;-70
2023/05/28 03:11:48;;;;;;;35.50;14.18;;;;;;;11.46;100.00;101968.78;5230629;28;20025;-70
2023/05/28 03:14:19;;;;;;;41.58;13.68;;;;;;;11.48;100.00;101961.41;5231779;28;20466;-70
2023/05/28 03:16:50;;;;;;;35.92;12.77;;;;;;;11.46;100.00;101966.09;5228113;28;20025;-70
2023/05/28 03:19:20;;;;;;;37.92;13.35;;;;;;;11.38;100.00;101965.97;5231939;28;20103;-71
2023/05/28 03:21:51;;;;;;;34.92;13.23;;;;;;;11.37;100.00;101964.28;5234171;28;20104;-70
2023/05/28 03:24:22;;;;;;;38.78;12.93;;;;;;;11.36;100.00;101976.00;5224189;28;20028;-70
2023/05/28 03:26:52;;;;;;;37.58;13.95;;;;;;;11.35;100.00;101974.31;5205909;28;20028;-70
2023/05/28 03:29:23;;;;;;;32.42;13.68;;;;;;;11.34;100.00;101970.75;5224449;28;20419;-70
2023/05/28 03:31:53;;;;;;;32.95;13.02;;;;;;;11.34;100.00;101980.66;5223824;28;20371;-70
2023/05/28 03:34:24;;;;;;;39.10;13.82;;;;;;;11.36;100.00;101981.38;5223927;28;20025;-70
2023/05/28 03:36:54;;;;;;;45.90;13.27;;;;;;;11.33;100.00;101978.97;5223606;28;20473;-72
2023/05/28 03:39:25;;;;;;;38.08;13.52;;;;;;;11.28;100.00;101982.09;5224195;28;20447;-70
2023/05/28 03:41:55;;;;;;;38.47;13.80;;;;;;;11.27;100.00;101971.50;5237388;28;20027;-72
2023/05/28 03:44:26;;;;;;;43.22;14.80;;;;;;;11.24;100.00;101977.16;5224728;28;20503;-70
2023/05/28 03:46:57;;;;;;;36.75;13.05;;;;;;;11.17;100.00;101971.50;5226507;28;20037;-71
2023/05/28 03:49:28;;;;;;;36.00;12.93;;;;;;;11.11;100.00;101974.78;5243730;28;20017;-70
2023/05/28 03:51:58;;;;;;;36.28;13.40;;;;;;;11.17;100.00;101971.50;5236935;28;20504;-70
2023/05/28 03:54:29;;;;;;;37.35;14.07;;;;;;;11.15;100.00;101976.19;5224965;28;20028;-70
2023/05/28 03:56:59;;;;;;;49.22;14.50;;;;;;;11.13;100.00;101980.84;5223709;28;20387;-70
2023/05/28 03:59:30;;;;;;;30.15;13.15;;;;;;;11.18;100.00;101985.78;5224739;28;20397;-70
2023/05/28 04:02:00;;;;;;;31.52;14.13;;;;;;;11.19;100.00;101987.47;5224264;28;20051;-70
2023/05/28 04:04:31;;;;;;;30.30;13.55;;;;;;;11.19;100.00;101979.41;5224819;28;20531;-70
2023/05/28 04:07:01;;;;;;;35.25;13.57;;;;;;;11.20;100.00;101975.75;5223521;28;20033;-70
2023/05/28 04:09:32;;;;;;;36.47;13.60;;;;;;;11.18;100.00;101985.78;5224335;28;20120;-70
2023/05/28 04:12:03;;;;;;;34.70;14.40;;;;;;;11.17;100.00;101981.41;5216788;28;20012;-71
2023/05/28 04:14:33;;;;;;;35.22;15.13;;;;;;;11.14;100.00;101985.22;5226846;28;20017;-71
2023/05/28 04:17:04;;;;;;;42.67;16.50;;;;;;;11.17;100.00;101992.16;5234928;28;20028;-70
2023/05/28 04:19:34;;;;;;;40.35;14.57;;;;;;;11.15;100.00;101993.16;5228368;28;20536;-70
2023/05/28 04:22:05;;;;;;;40.30;14.85;;;;;;;11.14;100.00;101993.28;5233086;28;20032;-70
2023/05/28 04:24:35;;;;;;;43.47;15.27;;;;;;;11.19;100.00;102000.91;5239147;28;20073;-70
2023/05/28 04:27:06;;;;;;;38.63;13.80;;;;;;;11.20;100.00;102000.78;5227328;28;20197;-70
2023/05/28 04:29:37;;;;;;;37.53;14.40;;;;;;;11.21;100.00;102007.00;5223594;28;20025;-70
2023/05/28 04:32:09;;;;;;;40.88;14.73;;;;;;;11.28;100.00;102014.31;5223186;28;20410;-70
2023/05/28 04:34:41;;;;;;;33.70;13.00;;;;;;;11.26;100.00;102000.22;5222836;28;20029;-70
2023/05/28 04:37:11;;;;;;;39.60;14.75;;;;;;;11.31;100.00;102006.00;5222330;28;20020;-71
2023/05/28 04:39:42;;;;;;;40.40;15.30;;;;;;;11.33;100.00;102009.38;5223292;28;20020;-70
2023/05/28 04:42:16;;;;;;;44.58;15.55;;;;;;;11.39;100.00;102007.94;5223011;28;20025;-71
2023/05/28 04:44:47;;;;;;;48.97;15.50;;;;;;;11.44;100.00;102008.38;5236448;28;20485;-71
2023/05/28 04:47:17;;;;;;;40.33;14.50;;;;;;;11.44;100.00;102008.38;5227320;28;20101;-70
2023/05/28 04:49:49;;;;;;;37.35;14.32;;;;;;;11.50;100.00;102012.34;5227993;28;20367;-70
2023/05/28 04:52:20;;;;;;;30.98;13.90;;;;;;;11.55;100.00;102024.34;5223212;28;20067;-70
2023/05/28 04:54:50;;;;;;;39.10;14.75;;;;;;;11.67;100.00;102025.88;5223394;28;20059;-70
2023/05/28 04:57:21;;;;;;;44.92;14.02;;;;;;;11.70;100.00;102026.56;5222402;28;20037;-71
2023/05/28 04:59:52;;;;;;;30.92;13.40;;;;;;;11.70;100.00;102021.19;5208669;28;20036;-70
2023/05/28 05:02:23;;;;;;;36.38;15.68;;;;;;;11.80;100.00;102022.88;5232375;28;20033;-70
2023/05/28 05:04:53;;;;;;;38.90;14.05;;;;;;;11.91;100.00;102025.44;5228153;28;20395;-70
2023/05/28 05:07:24;;;;;;;42.95;14.15;;;;;;;11.98;100.00;102022.16;5227172;28;20017;-70
2023/05/28 05:09:55;;;;;;;43.70;14.80;;;;;;;12.05;100.00;102018.75;5227494;28;20037;-73
2023/05/28 05:12:25;;;;;;;44.80;15.50;;;;;;;12.12;100.00;102013.59;5227614;28;20040;-70
2023/05/28 05:14:56;;;;;;;40.40;15.60;;;;;;;12.19;100.00;102012.00;5227405;28;20025;-71
2023/05/28 05:17:26;;;;;;;37.53;13.52;;;;;;;12.28;100.00;102015.66;5227246;28;20016;-71
2023/05/28 05:19:58;;;;;;;41.92;13.75;;;;;;;12.36;100.00;102013.91;5227714;28;20032;-70
2023/05/28 05:22:28;;;;;;;33.22;13.55;;;;;;;12.45;100.00;102017.56;5232703;28;20024;-70
2023/05/28 05:24:59;;;;;;;34.80;14.38;;;;;;;12.53;100.00;102023.03;5235225;28;20425;-71
2023/05/28 05:27:29;;;;;;;33.20;13.95;;;;;;;12.64;100.00;102014.72;5208239;28;20029;-71
2023/05/28 05:30:00;;;;;;;39.00;14.07;;;;;;;12.74;100.00;102019.22;5238366;28;20339;-71
2023/05/28 05:32:30;;;;;;;40.22;14.00;;;;;;;12.86;100.00;102018.00;5227517;28;20051;-71
2023/05/28 05:35:01;;;;;;;31.08;12.52;;;;;;;12.96;100.00;102019.63;5227046;28;20025;-72
2023/05/28 05:37:31;;;;;;;28.48;13.43;;;;;;;13.09;100.00;102015.69;5226138;28;20029;-71
2023/05/28 05:40:05;;;;;;;34.25;13.85;;;;;;;13.19;100.00;102013.75;5227035;28;20099;-71
2023/05/28 05:42:35;;;;;;;27.23;12.52;;;;;;;13.30;100.00;102018.09;5226568;28;20029;-71
2023/05/28 05:45:06;;;;;;;35.80;14.13;;;;;;;13.41;100.00;102032.19;5226635;28;20032;-71
2023/05/28 05:47:38;;;;;;;27.48;12.00;;;;;;;13.55;100.00;102030.75;5233230;28;20040;-71
2023/05/28 05:50:11;;;;;;;30.98;12.18;;;;;;;13.68;100.00;102033.91;5241040;28;20477;-72
2023/05/28 05:52:42;;;;;;;31.23;11.70;;;;;;;13.89;100.00;102032.69;5226853;28;20039;-72
2023/05/28 05:55:13;;;;;;;33.63;12.90;;;;;;;14.09;100.00;102036.00;5226547;28;20017;-72
2023/05/28 05:57:45;;;;;;;35.53;12.68;;;;;;;14.59;100.00;102032.56;5225775;28;20079;-72
2023/05/28 06:00:16;;;;;;;29.38;11.55;;;;;;;15.43;100.00;102028.81;5226170;28;20027;-72
2023/05/28 06:02:46;;;;;;;27.60;11.25;;;;;;;16.28;100.00;102030.00;5226115;28;20398;-72
2023/05/28 06:05:17;;;;;;;24.23;11.35;;;;;;;16.95;100.00;102023.25;5226208;28;20016;-72
2023/05/28 06:07:47;;;;;;;23.90;10.45;;;;;;;18.04;100.00;102025.53;5225914;28;20032;-72
2023/05/28 06:10:18;;;;;;;25.02;11.25;;;;;;;18.21;100.00;102031.63;5226005;28;20025;-72
2023/05/28 06:12:48;;;;;;;20.52;10.52;;;;;;;18.58;100.00;102035.25;5225723;28;20021;-72
2023/05/28 06:15:21;;;;;;;21.67;9.85;;;;;;;19.16;100.00;102022.50;5224730;28;20053;-72
2023/05/28 06:17:52;;;;;;;24.23;10.55;;;;;;;19.74;100.00;102025.97;5231549;28;20059;-72
2023/05/28 06:20:22;;;;;;;22.52;10.57;;;;;;;19.65;100.00;102021.72;5235426;28;20483;-72
2023/05/28 06:22:53;;;;;;;28.85;10.80;;;;;;;20.36;100.00;102018.78;5243853;28;20025;-72
2023/05/28 06:25:23;;;;;;;26.48;11.05;;;;;;;20.26;100.00;102021.88;5244208;28;20290;-71
2023/05/28 06:27:54;;;;;;;27.83;11.27;;;;;;;20.59;100.00;102023.97;5225568;28;20027;-72
2023/05/28 06:30:24;;;;;;;26.05;11.05;;;;;;;20.84;100.00;102019.66;5226387;28;20028;-72
2023/05/28 06:32:55;;;;;;;24.17;10.13;;;;;;;21.24;100.00;102011.53;5235250;28;20102;-72
2023/05/28 06:35:26;;;;;;;22.58;10.20;;;;;;;21.29;100.00;102006.28;5228608;28;20028;-72
2023/05/28 06:37:56;;;;;;;19.60;9.65;;;;;;;21.69;100.00;102020.78;5225373;28;20024;-72
2023/05/28 06:40:27;;;;;;;25.13;10.35;;;;;;;21.88;100.00;102019.06;5226140;28;20028;-72
2023/05/28 06:43:00;;;;;;;21.65;10.00;;;;;;;22.07;100.00;102013.78;5225710;28;20390;-72
2023/05/28 06:45:32;;;;;;;31.27;9.73;;;;;;;22.39;100.00;102023.81;5225865;28;20028;-72
2023/05/28 06:48:03;;;;;;;22.00;9.05;;;;;;;23.12;100.00;102009.75;5235892;28;20025;-72
2023/05/28 06:50:34;;;;;;;21.00;8.57;;;;;;;23.14;100.00;102013.09;5226386;28;20025;-72
2023/05/28 06:53:05;;;;;;;17.25;7.97;;;;;;;23.83;100.00;102021.41;5225995;28;20013;-72
2023/05/28 06:55:36;;;;;;;24.17;10.13;;;;;;;23.25;100.00;102017.88;5225195;28;20062;-72
2023/05/28 06:58:06;;;;;;;22.60;10.35;;;;;;;23.17;100.00;102029.09;5225089;28;20025;-72
2023/05/28 07:00:37;;;;;;;20.30;10.07;;;;;;;23.27;100.00;102023.13;5235387;28;20036;-72
2023/05/28 07:03:08;;;;;;;19.70;9.13;;;;;;;23.73;100.00;102024.66;5214436;28;20428;-72
2023/05/28 07:05:38;;;;;;;18.15;8.73;;;;;;;23.89;100.00;102024.06;5233859;28;20428;-72
2023/05/28 07:08:09;;;;;;;28.75;9.60;;;;;;;23.81;100.00;102029.84;5226055;28;20025;-72
2023/05/28 07:10:40;;;;;;;20.27;8.75;;;;;;;24.70;100.00;102033.91;5225131;28;20035;-73
2023/05/28 07:13:10;;;;;;;18.52;9.65;;;;;;;23.96;100.00;102027.59;5237391;28;20021;-72
2023/05/28 07:15:41;;;;;;;19.77;7.95;;;;;;;23.50;100.00;102026.09;5225323;28;20032;-73
2023/05/28 07:18:11;;;;;;;23.33;9.30;;;;;;;22.70;100.00;102027.66;5225027;28;20024;-73
2023/05/28 07:20:42;;;;;;;22.17;9.25;;;;;;;22.54;100.00;102029.00;5229755;28;20032;-72
2023/05/28 07:23:12;;;;;;;20.90;9.63;;;;;;;21.73;100.00;102035.69;5236512;28;20363;-72
2023/05/28 07:25:43;;;;;;;20.08;9.35;;;;;;;21.69;100.00;102026.25;5229266;28;20075;-72
2023/05/28 07:28:13;;;;;;;21.70;8.38;;;;;;;21.78;100.00;102031.47;5234775;28;20029;-72
2023/05/28 07:30:44;;;;;;;18.35;8.90;;;;;;;22.41;100.00;102029.91;5228024;28;20029;-72
2023/05/28 07:33:15;;;;;;;18.55;7.97;;;;;;;23.29;100.00;102029.19;5226534;28;20032;-72
2023/05/28 07:35:45;;;;;;;23.95;8.90;;;;;;;23.68;100.00;102039.03;5227459;28;20312;-72
2023/05/28 07:38:16;;;;;;;17.60;7.60;;;;;;;24.27;100.00;102042.22;5226042;28;20048;-71
2023/05/28 07:40:47;;;;;;;17.08;7.40;;;;;;;24.47;100.00;102042.84;5227128;28;20029;-73
2023/05/28 07:43:17;;;;;;;17.65;8.48;;;;;;;24.59;100.00;102040.16;5238748;28;20031;-72
2023/05/28 07:45:47;;;;;;;19.48;7.50;;;;;;;24.99;100.00;102037.72;5226484;28;20024;-72
2023/05/28 07:48:18;;;;;;;18.35;7.18;;;;;;;25.33;100.00;102034.50;5236823;28;20021;-72
2023/05/28 07:50:49;;;;;;;16.02;7.63;;;;;;;25.22;100.00;102031.50;5236108;28;20091;-72
2023/05/28 07:53:20;;;;;;;15.30;7.20;;;;;;;25.72;100.00;102024.75;5227533;28;20032;-72
2023/05/28 07:55:53;;;;;;;16.42;8.10;;;;;;;25.72;100.00;102024.75;5225166;28;20033;-73
2023/05/28 07:58:23;;;;;;;18.67;7.22;;;;;;;25.78;100.00;102027.41;5235999;28;20077;-72
2023/05/28 08:00:54;;;;;;;18.83;7.30;;;;;;;25.73;100.00;102024.50;5230592;28;20024;-73
2023/05/28 08:03:27;;;;;;;17.23;7.43;;;;;;;25.90;100.00;102030.13;5226991;28;20422;-72
2023/05/28 08:05:57;;;;;;;11.30;6.10;;;;;;;26.31;100.00;102034.63;5238337;28;20474;-72
2023/05/28 08:08:28;;;;;;;19.48;6.53;;;;;;;26.41;100.00;102033.16;5237187;28;20031;-72
2023/05/28 08:10:58;;;;;;;15.98;6.78;;;;;;;26.64;100.00;102022.13;5238550;28;20050;-72
2023/05/28 08:13:29;;;;;;;12.80;7.00;;;;;;;26.59;95.31;102024.75;5236438;28;20029;-73
2023/05/28 08:16:00;;;;;;;16.17;7.28;;;;;;;26.52;100.00;102024.91;5238856;28;20028;-72
2023/05/28 08:18:30;;;;;;;12.80;5.97;;;;;;;26.65;100.00;102021.03;5225957;28;20035;-72
2023/05/28 08:21:01;;;;;;;14.55;6.22;;;;;;;26.64;93.90;102022.13;5231427;28;20412;-73
2023/05/28 08:23:34;;;;;;;17.27;6.25;;;;;;;26.95;96.47;102011.69;5241526;28;20025;-72
2023/05/28 08:26:05;;;;;;;16.42;6.43;;;;;;;26.95;98.12;102015.25;5222146;28;20024;-72
2023/05/28 08:28:36;;;;;;;17.10;5.88;;;;;;;26.86;90.16;102016.78;5222861;28;20103;-72
2023/05/28 08:31:06;;;;;;;18.27;7.25;;;;;;;27.04;87.02;102011.03;5222997;28;20117;-73
2023/05/28 08:33:37;;;;;;;14.80;6.50;;;;;;;26.85;82.19;102001.31;5223311;28;20067;-73
2023/05/28 08:36:07;;;;;;;16.52;6.43;;;;;;;26.60;84.36;101999.75;5223012;28;20127;-73
2023/05/28 08:38:38;;;;;;;18.48;7.43;;;;;;;26.47;87.74;101990.97;5222171;28;20099;-73
2023/05/28 08:41:10;;;;;;;15.27;7.35;;;;;;;26.49;89.75;101994.28;5223622;28;20025;-73
2023/05/28 08:43:40;;;;;;;16.60;6.03;;;;;;;26.81;92.93;101994.66;5223273;28;20029;-73
2023/05/28 08:46:11;;;;;;;15.15;7.25;;;;;;;26.84;92.97;101986.72;5235787;28;20432;-73
2023/05/28 08:48:42;;;;;;;13.82;6.10;;;;;;;26.58;84.00;101990.91;5240672;28;20028;-73
2023/05/28 08:51:13;;;;;;;16.83;6.05;;;;;;;26.77;88.16;101982.47;5230014;28;20029;-73
2023/05/28 08:53:46;;;;;;;16.48;6.50;;;;;;;26.78;87.09;101975.88;5230604;28;20059;-73
2023/05/28 08:56:17;;;;;;;15.40;5.80;;;;;;;26.78;83.64;101978.63;5229984;28;20032;-73
2023/05/28 08:58:49;;;;;;;16.33;5.95;;;;;;;26.75;84.25;101981.84;5223955;28;20171;-73
2023/05/28 09:01:20;;;;;;;15.48;6.60;;;;;;;26.84;90.10;101980.38;5224990;28;20070;-73
2023/05/28 09:03:51;;;;;;;13.70;6.65;;;;;;;27.12;98.15;101974.03;5224644;28;20025;-73
2023/05/28 09:06:24;;;;;;;17.23;7.30;;;;;;;27.18;88.78;101969.44;5226219;28;20025;-73
2023/05/28 09:08:55;;;;;;;16.40;6.53;;;;;;;27.27;81.66;101973.44;5224555;28;20116;-73
2023/05/28 09:11:26;;;;;;;16.45;6.50;;;;;;;27.16;76.39;101974.34;5240872;28;20190;-73
2023/05/28 09:13:56;;;;;;;18.75;6.82;;;;;;;27.12;93.61;101967.69;5231448;28;20017;-73
2023/05/28 09:16:27;;;;;;;14.13;6.05;;;;;;;27.00;84.14;101960.28;5225737;28;20603;-73
2023/05/28 09:19:15;;;;;;;13.68;6.75;;;;;;;26.95;85.41;101976.72;5226974;28;20028;-73
2023/05/28 09:21:57;;;;;;;18.05;6.45;;;;;;;27.18;86.75;101969.44;5234576;28;20060;-73
2023/05/28 09:24:29;;;;;;;16.35;5.47;;;;;;;27.45;83.13;101966.81;5222286;28;20044;-73
2023/05/28 09:27:00;;;;;;;15.00;5.68;;;;;;;27.80;83.66;101966.53;5235281;28;20025;-73
2023/05/28 09:29:31;;;;;;;16.23;5.78;;;;;;;28.06;76.77;101974.09;5223347;28;20021;-73
2023/05/28 09:32:01;;;;;;;19.33;6.45;;;;;;;28.22;80.33;101972.34;5224175;28;20067;-73
2023/05/28 09:34:33;;;;;;;15.23;4.97;;;;;;;28.19;69.96;101981.13;5223547;28;20021;-73
2023/05/28 09:37:06;;;;;;;18.83;6.45;;;;;;;28.08;68.02;101982.94;5236631;28;20064;-73
2023/05/28 09:39:36;;;;;;;17.50;6.03;;;;;;;27.85;72.26;101972.13;5223809;28;20401;-73
2023/05/28 09:42:09;;;;;;;15.57;6.40;;;;;;;27.80;71.51;101983.91;5224207;28;20027;-73
2023/05/28 09:44:40;;;;;;;13.95;5.47;;;;;;;27.90;80.17;101972.19;5223619;28;20033;-73
2023/05/28 09:47:29;;;;;;;14.52;5.45;;;;;;;28.13;73.85;101963.69;5227224;28;20020;-73
2023/05/28 09:50:01;;;;;;;16.55;6.20;;;;;;;28.05;62.49;101969.63;5243441;28;20024;-73
2023/05/28 09:52:33;;;;;;;13.65;5.85;;;;;;;27.93;67.50;101970.88;5237787;28;20490;-73
2023/05/28 09:55:06;;;;;;;15.60;5.25;;;;;;;27.92;68.17;101961.75;5228788;28;20055;-73
2023/05/28 09:57:43;;;;;;;15.95;5.57;;;;;;;28.23;74.80;101965.75;5225547;28;20079;-73
2023/05/28 10:00:25;;;;;;;12.43;5.65;;;;;;;28.38;66.28;101959.59;5234545;28;20024;-73
2023/05/28 10:03:12;;;;;;;15.10;5.43;;;;;;;28.67;69.63;101951.91;5243456;28;20027;-74
2023/05/28 10:05:44;;;;;;;13.80;4.82;;;;;;;28.26;63.10;101961.63;5226805;28;20037;-74
2023/05/28 10:08:16;;;;;;;11.52;5.40;;;;;;;28.14;63.12;101954.31;5228295;28;20021;-73
2023/05/28 10:10:52;;;;;;;18.67;5.60;;;;;;;28.21;69.86;101956.03;5226914;28;20482;-73
2023/05/28 10:13:23;;;;;;;12.25;5.32;;;;;;;28.33;67.85;101953.97;5239043;28;20028;-73
2023/05/28 10:15:53;;;;;;;13.00;4.80;;;;;;;28.40;68.43;101951.88;5209823;28;20033;-73
2023/05/28 10:18:25;;;;;;;14.48;4.82;;;;;;;28.45;68.55;101956.63;5226758;28;20406;-74
2023/05/28 10:20:56;;;;;;;21.30;6.05;;;;;;;28.22;66.62;101957.72;5233071;28;20025;-73
2023/05/28 10:23:28;;;;;;;13.40;4.63;;;;;;;28.05;65.62;101961.38;5244106;28;20073;-73
2023/05/28 10:25:58;;;;;;;13.80;4.68;;;;;;;28.04;65.98;101962.47;5239156;28;20017;-73
2023/05/28 10:28:30;;;;;;;13.05;4.88;;;;;;;27.80;62.31;101958.28;5239018;28;20103;-73
2023/05/28 10:31:04;;;;;;;11.57;5.07;;;;;;;27.92;63.41;101956.25;5237922;28;20134;-73
2023/05/28 10:33:50;;;;;;;17.20;4.82;;;;;;;28.10;61.27;101950.41;5240725;28;20012;-73
2023/05/28 10:36:20;;;;;;;11.95;4.72;;;;;;;28.03;61.45;101947.00;5245342;28;20016;-73
2023/05/28 10:38:51;;;;;;;17.83;6.00;;;;;;;28.07;72.88;101958.38;5241404;28;20289;-73
2023/05/28 10:41:22;;;;;;;14.57;5.25;;;;;;;28.32;67.71;101952.31;5237717;28;20032;-73
2023/05/28 10:43:53;;;;;;;16.67;4.93;;;;;;;28.35;71.13;101949.06;5228152;28;20020;-73
2023/05/28 10:46:23;;;;;;;12.43;5.22;;;;;;;28.38;64.27;101948.56;5245301;28;20036;-73
2023/05/28 10:49:08;;;;;;;18.95;5.47;;;;;;;28.15;65.07;101949.63;5246111;28;20025;-73
2023/05/28 10:52:00;;;;;;;12.13;5.00;;;;;;;28.09;68.14;101957.00;5245229;28;20035;-73
2023/05/28 10:54:51;;;;;;;17.70;5.60;;;;;;;28.11;69.22;101959.50;5232326;28;20060;-73
2023/05/28 10:57:21;;;;;;;11.60;4.75;;;;;;;28.26;67.42;101950.56;5245259;28;20040;-73
2023/05/28 11:00:13;;;;;;;14.30;4.90;;;;;;;28.41;65.32;101961.81;5245955;28;20032;-73
2023/05/28 11:02:47;;;;;;;13.93;5.38;;;;;;;28.69;65.57;101954.41;5245598;28;20394;-73
2023/05/28 11:05:23;;;;;;;13.88;5.90;;;;;;;28.70;64.23;101951.38;5236484;28;20383;-73
2023/05/28 11:07:55;;;;;;;12.52;4.97;;;;;;;28.65;65.06;101954.06;5241194;28;20481;-73
2023/05/28 11:10:28;;;;;;;13.32;6.18;;;;;;;28.69;66.37;101951.63;5244824;28;20035;-74
2023/05/28 11:12:58;;;;;;;18.48;5.38;;;;;;;28.44;64.97;101954.97;5245124;28;20024;-73
2023/05/28 11:15:29;;;;;;;12.27;5.18;;;;;;;28.11;61.35;101949.31;5245214;28;20405;-73
2023/05/28 11:18:00;;;;;;;14.98;5.50;;;;;;;28.06;67.27;101942.88;5231539;28;20492;-73
2023/05/28 11:20:30;;;;;;;11.77;5.35;;;;;;;28.17;65.24;101936.44;5226893;28;20023;-73
2023/05/28 11:23:16;;;;;;;19.63;5.97;;;;;;;28.43;62.30;101932.06;5242424;28;20036;-73
2023/05/28 11:25:46;;;;;;;12.82;5.13;;;;;;;28.60;69.75;101924.50;5244379;28;20028;-73
2023/05/28 11:28:18;;;;;;;12.75;5.35;;;;;;;28.74;67.03;101935.94;5245507;28;20020;-73